sensor_id;sensor_type;location;lat;lon;timestamp;P1;durP1;ratioP1;P2;durP2;ratioP2
78549;SDS011;68091;52.130;5.570;2023-05-07T00:02:11;14.57;;;7.13;;
78549;SDS011;68091;52.130;5.570;2023-05-07T00:04:37;10.13;;;7.32;;
78549;SDS011;68091;52.130;5.570;2023-05-07T00:07:04;13.45;;;7.65;;
78549;SDS011;68091;52.130;5.570;2023-05-07T00:09:30;10.40;;;7.15;;
78549;SDS011;68091;52.130;5.570;2023-05-07T00:11:56;11.45;;;7.57;;
78549;SDS011;68091;52.130;5.570;2023-05-07T00:14:22;9.75;;;7.07;;
78549;SDS011;68091;52.130;5.570;2023-05-07T00:16:51;13.27;;;7.60;;
78549;SDS011;68091;52.130;5.570;2023-05-07T00:19:16;11.23;;;7.55;;
78549;SDS011;68091;52.130;5.570;2023-05-07T00:21:42;11.18;;;7.70;;
78549;SDS011;68091;52.130;5.570;2023-05-07T00:24:11;12.50;;;7.68;;
78549;SDS011;68091;52.130;5.570;2023-05-07T00:26:37;8.32;;;6.95;;
78549;SDS011;68091;52.130;5.570;2023-05-07T00:29:05;12.18;;;7.88;;
78549;SDS011;68091;52.130;5.570;2023-05-07T00:31:31;11.70;;;7.28;;
78549;SDS011;68091;52.130;5.570;2023-05-07T00:33:57;11.50;;;7.65;;
78549;SDS011;68091;52.130;5.570;2023-05-07T00:36:23;12.75;;;8.20;;
78549;SDS011;68091;52.130;5.570;2023-05-07T00:38:49;11.65;;;8.20;;
78549;SDS011;68091;52.130;5.570;2023-05-07T00:41:15;9.93;;;7.38;;
78549;SDS011;68091;52.130;5.570;2023-05-07T00:43:40;11.25;;;7.88;;
78549;SDS011;68091;52.130;5.570;2023-05-07T00:46:07;12.95;;;7.70;;
78549;SDS011;68091;52.130;5.570;2023-05-07T00:48:36;9.05;;;7.32;;
78549;SDS011;68091;52.130;5.570;2023-05-07T00:51:02;8.95;;;7.25;;
78549;SDS011;68091;52.130;5.570;2023-05-07T00:53:28;10.07;;;7.00;;
78549;SDS011;68091;52.130;5.570;2023-05-07T00:55:55;10.50;;;7.75;;
78549;SDS011;68091;52.130;5.570;2023-05-07T00:58:24;11.85;;;6.90;;
78549;SDS011;68091;52.130;5.570;2023-05-07T01:00:50;7.93;;;7.10;;
78549;SDS011;68091;52.130;5.570;2023-05-07T01:03:16;12.57;;;8.55;;
78549;SDS011;68091;52.130;5.570;2023-05-07T01:05:41;13.85;;;8.57;;
78549;SDS011;68091;52.130;5.570;2023-05-07T01:08:10;10.80;;;7.95;;
78549;SDS011;68091;52.130;5.570;2023-05-07T01:10:36;9.43;;;7.65;;
78549;SDS011;68091;52.130;5.570;2023-05-07T01:13:02;10.88;;;8.00;;
78549;SDS011;68091;52.130;5.570;2023-05-07T01:15:32;11.27;;;7.78;;
78549;SDS011;68091;52.130;5.570;2023-05-07T01:17:57;10.70;;;8.20;;
78549;SDS011;68091;52.130;5.570;2023-05-07T01:20:23;11.63;;;8.82;;
78549;SDS011;68091;52.130;5.570;2023-05-07T01:22:50;11.45;;;7.88;;
78549;SDS011;68091;52.130;5.570;2023-05-07T01:25:16;11.30;;;8.05;;
78549;SDS011;68091;52.130;5.570;2023-05-07T01:27:43;9.57;;;8.18;;
78549;SDS011;68091;52.130;5.570;2023-05-07T01:30:09;12.02;;;9.27;;
78549;SDS011;68091;52.130;5.570;2023-05-07T01:32:51;10.18;;;8.63;;
78549;SDS011;68091;52.130;5.570;2023-05-07T01:35:24;12.00;;;8.70;;
78549;SDS011;68091;52.130;5.570;2023-05-07T01:37:55;10.85;;;8.27;;
78549;SDS011;68091;52.130;5.570;2023-05-07T01:40:22;11.30;;;8.82;;
78549;SDS011;68091;52.130;5.570;2023-05-07T01:42:50;12.85;;;9.95;;
78549;SDS011;68091;52.130;5.570;2023-05-07T01:45:17;13.45;;;9.00;;
78549;SDS011;68091;52.130;5.570;2023-05-07T01:47:45;12.68;;;9.05;;
78549;SDS011;68091;52.130;5.570;2023-05-07T01:50:11;11.48;;;9.23;;
78549;SDS011;68091;52.130;5.570;2023-05-07T01:52:38;11.40;;;8.90;;
78549;SDS011;68091;52.130;5.570;2023-05-07T01:55:04;14.27;;;10.48;;
78549;SDS011;68091;52.130;5.570;2023-05-07T01:57:31;14.38;;;9.55;;
78549;SDS011;68091;52.130;5.570;2023-05-07T01:59:57;12.32;;;9.90;;
78549;SDS011;68091;52.130;5.570;2023-05-07T02:02:22;13.52;;;9.43;;
78549;SDS011;68091;52.130;5.570;2023-05-07T02:04:51;13.82;;;10.00;;
78549;SDS011;68091;52.130;5.570;2023-05-07T02:07:17;14.60;;;10.30;;
78549;SDS011;68091;52.130;5.570;2023-05-07T02:09:42;11.68;;;9.25;;
78549;SDS011;68091;52.130;5.570;2023-05-07T02:12:08;15.75;;;10.40;;
78549;SDS011;68091;52.130;5.570;2023-05-07T02:14:34;11.68;;;10.05;;
78549;SDS011;68091;52.130;5.570;2023-05-07T02:16:59;16.13;;;10.60;;
78549;SDS011;68091;52.130;5.570;2023-05-07T02:19:25;14.15;;;9.85;;
78549;SDS011;68091;52.130;5.570;2023-05-07T02:21:51;15.55;;;10.50;;
78549;SDS011;68091;52.130;5.570;2023-05-07T02:24:18;13.52;;;10.68;;
78549;SDS011;68091;52.130;5.570;2023-05-07T02:26:43;13.73;;;10.70;;
78549;SDS011;68091;52.130;5.570;2023-05-07T02:29:09;14.80;;;11.60;;
78549;SDS011;68091;52.130;5.570;2023-05-07T02:31:35;14.80;;;10.18;;
78549;SDS011;68091;52.130;5.570;2023-05-07T02:34:00;16.40;;;11.10;;
78549;SDS011;68091;52.130;5.570;2023-05-07T02:36:26;14.60;;;12.30;;
78549;SDS011;68091;52.130;5.570;2023-05-07T02:38:52;14.48;;;11.32;;
78549;SDS011;68091;52.130;5.570;2023-05-07T02:41:18;14.95;;;11.40;;
78549;SDS011;68091;52.130;5.570;2023-05-07T02:43:45;13.35;;;11.57;;
78549;SDS011;68091;52.130;5.570;2023-05-07T02:46:11;15.98;;;12.02;;
78549;SDS011;68091;52.130;5.570;2023-05-07T02:48:37;17.13;;;12.30;;
78549;SDS011;68091;52.130;5.570;2023-05-07T02:51:03;18.60;;;12.73;;
78549;SDS011;68091;52.130;5.570;2023-05-07T02:53:32;12.18;;;10.85;;
78549;SDS011;68091;52.130;5.570;2023-05-07T02:56:00;17.75;;;12.02;;
78549;SDS011;68091;52.130;5.570;2023-05-07T02:58:26;14.57;;;11.85;;
78549;SDS011;68091;52.130;5.570;2023-05-07T03:00:52;18.95;;;12.32;;
78549;SDS011;68091;52.130;5.570;2023-05-07T03:03:21;15.80;;;13.43;;
78549;SDS011;68091;52.130;5.570;2023-05-07T03:05:47;16.05;;;12.80;;
78549;SDS011;68091;52.130;5.570;2023-05-07T03:08:13;15.18;;;12.45;;
78549;SDS011;68091;52.130;5.570;2023-05-07T03:10:39;16.48;;;13.13;;
78549;SDS011;68091;52.130;5.570;2023-05-07T03:13:05;15.07;;;12.45;;
78549;SDS011;68091;52.130;5.570;2023-05-07T03:15:31;16.75;;;13.13;;
78549;SDS011;68091;52.130;5.570;2023-05-07T03:17:59;16.15;;;13.65;;
78549;SDS011;68091;52.130;5.570;2023-05-07T03:20:24;14.77;;;12.77;;
78549;SDS011;68091;52.130;5.570;2023-05-07T03:22:50;16.73;;;13.15;;
78549;SDS011;68091;52.130;5.570;2023-05-07T03:25:16;19.30;;;15.57;;
78549;SDS011;68091;52.130;5.570;2023-05-07T03:27:41;19.77;;;16.08;;
78549;SDS011;68091;52.130;5.570;2023-05-07T03:30:07;19.33;;;14.57;;
78549;SDS011;68091;52.130;5.570;2023-05-07T03:32:34;22.50;;;15.18;;
78549;SDS011;68091;52.130;5.570;2023-05-07T03:35:01;19.40;;;14.82;;
78549;SDS011;68091;52.130;5.570;2023-05-07T03:37:27;15.77;;;13.55;;
78549;SDS011;68091;52.130;5.570;2023-05-07T03:39:53;18.55;;;14.68;;
78549;SDS011;68091;52.130;5.570;2023-05-07T03:42:22;18.80;;;14.10;;
78549;SDS011;68091;52.130;5.570;2023-05-07T03:44:48;16.20;;;13.82;;
78549;SDS011;68091;52.130;5.570;2023-05-07T03:47:13;23.70;;;15.40;;
78549;SDS011;68091;52.130;5.570;2023-05-07T03:49:39;16.38;;;14.35;;
78549;SDS011;68091;52.130;5.570;2023-05-07T03:52:05;16.90;;;14.10;;
78549;SDS011;68091;52.130;5.570;2023-05-07T03:54:31;18.05;;;14.30;;
78549;SDS011;68091;52.130;5.570;2023-05-07T03:56:57;17.83;;;13.68;;
78549;SDS011;68091;52.130;5.570;2023-05-07T03:59:23;20.63;;;14.25;;
78549;SDS011;68091;52.130;5.570;2023-05-07T04:01:48;18.77;;;14.65;;
78549;SDS011;68091;52.130;5.570;2023-05-07T04:04:14;18.60;;;14.73;;
78549;SDS011;68091;52.130;5.570;2023-05-07T04:06:41;18.58;;;14.52;;
78549;SDS011;68091;52.130;5.570;2023-05-07T04:09:07;20.20;;;14.93;;
78549;SDS011;68091;52.130;5.570;2023-05-07T04:11:33;20.05;;;14.57;;
78549;SDS011;68091;52.130;5.570;2023-05-07T04:13:59;16.80;;;13.48;;
78549;SDS011;68091;52.130;5.570;2023-05-07T04:16:25;18.40;;;13.70;;
78549;SDS011;68091;52.130;5.570;2023-05-07T04:18:51;19.08;;;13.98;;
78549;SDS011;68091;52.130;5.570;2023-05-07T04:21:17;16.30;;;13.50;;
78549;SDS011;68091;52.130;5.570;2023-05-07T04:23:44;19.73;;;13.57;;
78549;SDS011;68091;52.130;5.570;2023-05-07T04:26:10;19.00;;;14.10;;
78549;SDS011;68091;52.130;5.570;2023-05-07T04:28:36;16.40;;;13.40;;
78549;SDS011;68091;52.130;5.570;2023-05-07T04:31:03;16.02;;;13.43;;
78549;SDS011;68091;52.130;5.570;2023-05-07T04:33:28;19.00;;;13.82;;
78549;SDS011;68091;52.130;5.570;2023-05-07T04:35:54;17.85;;;13.85;;
78549;SDS011;68091;52.130;5.570;2023-05-07T04:38:20;16.27;;;13.70;;
78549;SDS011;68091;52.130;5.570;2023-05-07T04:40:48;19.98;;;15.10;;
78549;SDS011;68091;52.130;5.570;2023-05-07T04:43:14;23.30;;;16.33;;
78549;SDS011;68091;52.130;5.570;2023-05-07T04:45:41;20.67;;;14.68;;
78549;SDS011;68091;52.130;5.570;2023-05-07T04:48:07;21.17;;;15.88;;
78549;SDS011;68091;52.130;5.570;2023-05-07T04:50:35;22.48;;;15.93;;
78549;SDS011;68091;52.130;5.570;2023-05-07T04:53:01;20.55;;;16.00;;
78549;SDS011;68091;52.130;5.570;2023-05-07T04:55:28;21.40;;;16.58;;
78549;SDS011;68091;52.130;5.570;2023-05-07T04:57:54;19.98;;;16.88;;
78549;SDS011;68091;52.130;5.570;2023-05-07T05:00:19;20.70;;;16.58;;
78549;SDS011;68091;52.130;5.570;2023-05-07T05:02:45;20.92;;;16.85;;
78549;SDS011;68091;52.130;5.570;2023-05-07T05:05:11;22.13;;;18.77;;
78549;SDS011;68091;52.130;5.570;2023-05-07T05:07:37;25.50;;;18.90;;
78549;SDS011;68091;52.130;5.570;2023-05-07T05:10:04;22.50;;;18.02;;
78549;SDS011;68091;52.130;5.570;2023-05-07T05:12:31;26.45;;;18.90;;
78549;SDS011;68091;52.130;5.570;2023-05-07T05:14:57;24.52;;;18.35;;
78549;SDS011;68091;52.130;5.570;2023-05-07T05:17:22;22.58;;;18.05;;
78549;SDS011;68091;52.130;5.570;2023-05-07T05:19:48;21.45;;;16.70;;
78549;SDS011;68091;52.130;5.570;2023-05-07T05:22:14;21.95;;;17.92;;
78549;SDS011;68091;52.130;5.570;2023-05-07T05:24:40;22.08;;;17.75;;
78549;SDS011;68091;52.130;5.570;2023-05-07T05:27:06;23.08;;;19.05;;
78549;SDS011;68091;52.130;5.570;2023-05-07T05:29:32;24.85;;;21.33;;
78549;SDS011;68091;52.130;5.570;2023-05-07T05:31:58;26.65;;;21.20;;
78549;SDS011;68091;52.130;5.570;2023-05-07T05:34:23;24.27;;;20.65;;
78549;SDS011;68091;52.130;5.570;2023-05-07T05:36:49;37.65;;;26.67;;
78549;SDS011;68091;52.130;5.570;2023-05-07T05:39:15;52.05;;;32.63;;
78549;SDS011;68091;52.130;5.570;2023-05-07T05:41:41;42.85;;;29.25;;
78549;SDS011;68091;52.130;5.570;2023-05-07T05:44:06;42.08;;;30.98;;
78549;SDS011;68091;52.130;5.570;2023-05-07T05:46:32;29.42;;;25.27;;
78549;SDS011;68091;52.130;5.570;2023-05-07T05:48:58;36.85;;;27.42;;
78549;SDS011;68091;52.130;5.570;2023-05-07T05:51:24;31.83;;;25.77;;
78549;SDS011;68091;52.130;5.570;2023-05-07T05:53:50;24.80;;;20.95;;
78549;SDS011;68091;52.130;5.570;2023-05-07T05:56:15;26.08;;;20.27;;
78549;SDS011;68091;52.130;5.570;2023-05-07T05:58:41;24.90;;;19.75;;
78549;SDS011;68091;52.130;5.570;2023-05-07T06:01:07;22.95;;;20.42;;
78549;SDS011;68091;52.130;5.570;2023-05-07T06:03:33;24.42;;;21.15;;
78549;SDS011;68091;52.130;5.570;2023-05-07T06:05:59;22.88;;;20.05;;
78549;SDS011;68091;52.130;5.570;2023-05-07T06:08:25;23.05;;;19.25;;
78549;SDS011;68091;52.130;5.570;2023-05-07T06:10:54;22.65;;;20.00;;
78549;SDS011;68091;52.130;5.570;2023-05-07T06:13:20;21.23;;;18.30;;
78549;SDS011;68091;52.130;5.570;2023-05-07T06:15:46;25.92;;;20.05;;
78549;SDS011;68091;52.130;5.570;2023-05-07T06:18:12;25.58;;;19.52;;
78549;SDS011;68091;52.130;5.570;2023-05-07T06:20:37;21.70;;;19.38;;
78549;SDS011;68091;52.130;5.570;2023-05-07T06:23:06;24.50;;;21.17;;
78549;SDS011;68091;52.130;5.570;2023-05-07T06:25:32;24.50;;;21.52;;
78549;SDS011;68091;52.130;5.570;2023-05-07T06:27:58;26.52;;;21.95;;
78549;SDS011;68091;52.130;5.570;2023-05-07T06:30:24;23.05;;;20.17;;
78549;SDS011;68091;52.130;5.570;2023-05-07T06:32:50;26.08;;;21.48;;
78549;SDS011;68091;52.130;5.570;2023-05-07T06:35:15;23.42;;;20.40;;
78549;SDS011;68091;52.130;5.570;2023-05-07T06:37:41;23.25;;;20.63;;
78549;SDS011;68091;52.130;5.570;2023-05-07T06:40:08;22.77;;;20.10;;
78549;SDS011;68091;52.130;5.570;2023-05-07T06:42:35;25.25;;;20.30;;
78549;SDS011;68091;52.130;5.570;2023-05-07T06:45:01;21.58;;;19.27;;
78549;SDS011;68091;52.130;5.570;2023-05-07T06:47:27;24.10;;;20.02;;
78549;SDS011;68091;52.130;5.570;2023-05-07T06:49:53;22.13;;;19.20;;
78549;SDS011;68091;52.130;5.570;2023-05-07T06:52:29;23.25;;;20.35;;
78549;SDS011;68091;52.130;5.570;2023-05-07T06:54:54;23.42;;;19.40;;
78549;SDS011;68091;52.130;5.570;2023-05-07T06:57:20;21.08;;;18.88;;
78549;SDS011;68091;52.130;5.570;2023-05-07T06:59:46;23.08;;;19.80;;
78549;SDS011;68091;52.130;5.570;2023-05-07T07:02:11;24.30;;;19.73;;
78549;SDS011;68091;52.130;5.570;2023-05-07T07:04:37;23.67;;;19.23;;
78549;SDS011;68091;52.130;5.570;2023-05-07T07:07:03;21.98;;;19.67;;
78549;SDS011;68091;52.130;5.570;2023-05-07T07:09:29;23.08;;;20.65;;
78549;SDS011;68091;52.130;5.570;2023-05-07T07:11:55;25.90;;;21.30;;
78549;SDS011;68091;52.130;5.570;2023-05-07T07:14:21;25.58;;;21.60;;
78549;SDS011;68091;52.130;5.570;2023-05-07T07:16:46;24.65;;;21.35;;
78549;SDS011;68091;52.130;5.570;2023-05-07T07:19:12;25.50;;;21.50;;
78549;SDS011;68091;52.130;5.570;2023-05-07T07:21:40;26.95;;;21.58;;
78549;SDS011;68091;52.130;5.570;2023-05-07T07:24:06;23.85;;;21.33;;
78549;SDS011;68091;52.130;5.570;2023-05-07T07:26:32;23.13;;;20.65;;
78549;SDS011;68091;52.130;5.570;2023-05-07T07:28:57;24.67;;;20.63;;
78549;SDS011;68091;52.130;5.570;2023-05-07T07:31:23;25.55;;;21.73;;
78549;SDS011;68091;52.130;5.570;2023-05-07T07:33:49;24.27;;;21.73;;
78549;SDS011;68091;52.130;5.570;2023-05-07T07:36:15;24.30;;;21.05;;
78549;SDS011;68091;52.130;5.570;2023-05-07T07:38:41;24.52;;;21.63;;
78549;SDS011;68091;52.130;5.570;2023-05-07T07:41:09;24.52;;;21.90;;
78549;SDS011;68091;52.130;5.570;2023-05-07T07:43:38;26.27;;;21.45;;
78549;SDS011;68091;52.130;5.570;2023-05-07T07:46:04;25.10;;;21.58;;
78549;SDS011;68091;52.130;5.570;2023-05-07T07:48:30;30.08;;;22.20;;
78549;SDS011;68091;52.130;5.570;2023-05-07T07:50:56;27.48;;;22.42;;
78549;SDS011;68091;52.130;5.570;2023-05-07T07:53:21;24.63;;;21.27;;
78549;SDS011;68091;52.130;5.570;2023-05-07T07:55:47;25.10;;;21.77;;
78549;SDS011;68091;52.130;5.570;2023-05-07T07:58:13;25.30;;;21.80;;
78549;SDS011;68091;52.130;5.570;2023-05-07T08:00:39;25.27;;;21.85;;
78549;SDS011;68091;52.130;5.570;2023-05-07T08:03:04;24.50;;;21.90;;
78549;SDS011;68091;52.130;5.570;2023-05-07T08:05:32;24.42;;;21.83;;
78549;SDS011;68091;52.130;5.570;2023-05-07T08:07:58;25.02;;;22.42;;
78549;SDS011;68091;52.130;5.570;2023-05-07T08:10:23;26.35;;;22.20;;
78549;SDS011;68091;52.130;5.570;2023-05-07T08:12:50;24.02;;;21.50;;
78549;SDS011;68091;52.130;5.570;2023-05-07T08:15:16;26.05;;;23.25;;
78549;SDS011;68091;52.130;5.570;2023-05-07T08:17:42;24.73;;;22.10;;
78549;SDS011;68091;52.130;5.570;2023-05-07T08:20:08;27.77;;;21.65;;
78549;SDS011;68091;52.130;5.570;2023-05-07T08:22:35;24.00;;;21.40;;
78549;SDS011;68091;52.130;5.570;2023-05-07T08:25:01;24.27;;;20.95;;
78549;SDS011;68091;52.130;5.570;2023-05-07T08:27:27;24.20;;;20.75;;
78549;SDS011;68091;52.130;5.570;2023-05-07T08:29:53;22.52;;;19.20;;
78549;SDS011;68091;52.130;5.570;2023-05-07T08:32:20;24.58;;;21.23;;
78549;SDS011;68091;52.130;5.570;2023-05-07T08:34:46;21.95;;;19.65;;
78549;SDS011;68091;52.130;5.570;2023-05-07T08:37:16;22.58;;;20.23;;
78549;SDS011;68091;52.130;5.570;2023-05-07T08:39:41;24.45;;;21.52;;
78549;SDS011;68091;52.130;5.570;2023-05-07T08:42:07;25.77;;;21.30;;
78549;SDS011;68091;52.130;5.570;2023-05-07T08:44:35;25.80;;;20.67;;
78549;SDS011;68091;52.130;5.570;2023-05-07T08:47:03;26.00;;;22.02;;
78549;SDS011;68091;52.130;5.570;2023-05-07T08:49:32;25.30;;;21.08;;
78549;SDS011;68091;52.130;5.570;2023-05-07T08:51:59;24.63;;;21.58;;
78549;SDS011;68091;52.130;5.570;2023-05-07T08:54:25;31.08;;;22.25;;
78549;SDS011;68091;52.130;5.570;2023-05-07T08:56:52;25.58;;;22.48;;
78549;SDS011;68091;52.130;5.570;2023-05-07T08:59:18;28.85;;;23.23;;
78549;SDS011;68091;52.130;5.570;2023-05-07T09:01:44;27.23;;;23.00;;
78549;SDS011;68091;52.130;5.570;2023-05-07T09:04:10;26.85;;;22.90;;
78549;SDS011;68091;52.130;5.570;2023-05-07T09:06:37;27.60;;;23.75;;
78549;SDS011;68091;52.130;5.570;2023-05-07T09:09:07;31.08;;;25.48;;
78549;SDS011;68091;52.130;5.570;2023-05-07T09:11:33;29.75;;;24.75;;
78549;SDS011;68091;52.130;5.570;2023-05-07T09:13:59;29.38;;;25.33;;
78549;SDS011;68091;52.130;5.570;2023-05-07T09:16:26;29.83;;;23.80;;
78549;SDS011;68091;52.130;5.570;2023-05-07T09:18:54;26.15;;;23.35;;
78549;SDS011;68091;52.130;5.570;2023-05-07T09:21:20;30.27;;;25.25;;
78549;SDS011;68091;52.130;5.570;2023-05-07T09:23:48;32.25;;;26.40;;
78549;SDS011;68091;52.130;5.570;2023-05-07T09:26:17;30.35;;;24.83;;
78549;SDS011;68091;52.130;5.570;2023-05-07T09:28:46;29.10;;;24.05;;
78549;SDS011;68091;52.130;5.570;2023-05-07T09:31:11;28.75;;;23.80;;
78549;SDS011;68091;52.130;5.570;2023-05-07T09:33:40;33.15;;;23.83;;
78549;SDS011;68091;52.130;5.570;2023-05-07T09:36:07;30.77;;;25.00;;
78549;SDS011;68091;52.130;5.570;2023-05-07T09:38:34;29.55;;;23.52;;
78549;SDS011;68091;52.130;5.570;2023-05-07T09:41:10;26.60;;;22.42;;
78549;SDS011;68091;52.130;5.570;2023-05-07T09:43:38;30.77;;;23.13;;
78549;SDS011;68091;52.130;5.570;2023-05-07T09:46:11;33.40;;;22.52;;
78549;SDS011;68091;52.130;5.570;2023-05-07T09:48:38;29.75;;;22.00;;
78549;SDS011;68091;52.130;5.570;2023-05-07T09:51:21;28.30;;;22.15;;
78549;SDS011;68091;52.130;5.570;2023-05-07T09:53:47;30.08;;;23.05;;
78549;SDS011;68091;52.130;5.570;2023-05-07T09:56:15;28.05;;;22.48;;
78549;SDS011;68091;52.130;5.570;2023-05-07T09:58:43;26.63;;;22.75;;
78549;SDS011;68091;52.130;5.570;2023-05-07T10:01:10;26.90;;;22.92;;
78549;SDS011;68091;52.130;5.570;2023-05-07T10:03:39;29.55;;;23.02;;
78549;SDS011;68091;52.130;5.570;2023-05-07T10:06:07;33.80;;;22.15;;
78549;SDS011;68091;52.130;5.570;2023-05-07T10:08:35;24.83;;;20.23;;
78549;SDS011;68091;52.130;5.570;2023-05-07T10:11:03;27.20;;;22.15;;
78549;SDS011;68091;52.130;5.570;2023-05-07T10:13:29;29.15;;;21.13;;
78549;SDS011;68091;52.130;5.570;2023-05-07T10:15:56;26.40;;;20.00;;
78549;SDS011;68091;52.130;5.570;2023-05-07T10:18:22;26.15;;;20.52;;
78549;SDS011;68091;52.130;5.570;2023-05-07T10:20:54;21.80;;;19.05;;
78549;SDS011;68091;52.130;5.570;2023-05-07T10:23:50;24.73;;;19.98;;
78549;SDS011;68091;52.130;5.570;2023-05-07T10:26:21;21.98;;;18.67;;
78549;SDS011;68091;52.130;5.570;2023-05-07T10:28:49;29.42;;;20.20;;
78549;SDS011;68091;52.130;5.570;2023-05-07T10:31:34;26.70;;;22.27;;
78549;SDS011;68091;52.130;5.570;2023-05-07T10:34:09;26.90;;;21.23;;
78549;SDS011;68091;52.130;5.570;2023-05-07T10:36:38;24.33;;;20.20;;
78549;SDS011;68091;52.130;5.570;2023-05-07T10:39:05;27.23;;;21.75;;
78549;SDS011;68091;52.130;5.570;2023-05-07T10:41:31;26.30;;;20.40;;
78549;SDS011;68091;52.130;5.570;2023-05-07T10:43:57;23.52;;;20.20;;
78549;SDS011;68091;52.130;5.570;2023-05-07T10:46:26;25.40;;;19.95;;
78549;SDS011;68091;52.130;5.570;2023-05-07T10:51:36;23.25;;;19.48;;
78549;SDS011;68091;52.130;5.570;2023-05-07T10:56:41;25.88;;;20.70;;
78549;SDS011;68091;52.130;5.570;2023-05-07T11:01:57;24.98;;;19.80;;
78549;SDS011;68091;52.130;5.570;2023-05-07T11:04:24;23.83;;;19.88;;
78549;SDS011;68091;52.130;5.570;2023-05-07T11:15:11;20.48;;;18.27;;
78549;SDS011;68091;52.130;5.570;2023-05-07T11:18:01;22.13;;;18.38;;
78549;SDS011;68091;52.130;5.570;2023-05-07T11:26:00;19.02;;;16.50;;
78549;SDS011;68091;52.130;5.570;2023-05-07T11:28:38;22.63;;;17.58;;
78549;SDS011;68091;52.130;5.570;2023-05-07T11:31:07;22.50;;;18.05;;
78549;SDS011;68091;52.130;5.570;2023-05-07T11:33:34;23.83;;;17.92;;
78549;SDS011;68091;52.130;5.570;2023-05-07T11:36:04;21.77;;;18.58;;
78549;SDS011;68091;52.130;5.570;2023-05-07T11:38:35;20.52;;;17.55;;
78549;SDS011;68091;52.130;5.570;2023-05-07T11:41:04;21.05;;;17.13;;
78549;SDS011;68091;52.130;5.570;2023-05-07T11:43:36;21.45;;;17.98;;
78549;SDS011;68091;52.130;5.570;2023-05-07T11:46:09;21.45;;;17.23;;
78549;SDS011;68091;52.130;5.570;2023-05-07T11:48:39;20.67;;;15.70;;
78549;SDS011;68091;52.130;5.570;2023-05-07T11:51:06;22.75;;;17.17;;
78549;SDS011;68091;52.130;5.570;2023-05-07T11:53:41;22.25;;;16.90;;
78549;SDS011;68091;52.130;5.570;2023-05-07T11:56:08;20.48;;;17.38;;
78549;SDS011;68091;52.130;5.570;2023-05-07T11:58:35;21.92;;;17.38;;
78549;SDS011;68091;52.130;5.570;2023-05-07T12:01:01;21.17;;;18.88;;
78549;SDS011;68091;52.130;5.570;2023-05-07T12:03:27;20.30;;;16.25;;
78549;SDS011;68091;52.130;5.570;2023-05-07T12:05:53;18.40;;;15.90;;
78549;SDS011;68091;52.130;5.570;2023-05-07T12:08:20;20.58;;;16.23;;
78549;SDS011;68091;52.130;5.570;2023-05-07T12:10:48;20.85;;;15.88;;
78549;SDS011;68091;52.130;5.570;2023-05-07T12:13:19;21.48;;;18.52;;
78549;SDS011;68091;52.130;5.570;2023-05-07T12:15:54;21.95;;;17.75;;
78549;SDS011;68091;52.130;5.570;2023-05-07T12:18:21;21.25;;;17.23;;
78549;SDS011;68091;52.130;5.570;2023-05-07T12:20:50;22.98;;;17.90;;
78549;SDS011;68091;52.130;5.570;2023-05-07T12:23:16;20.63;;;17.75;;
78549;SDS011;68091;52.130;5.570;2023-05-07T12:25:43;21.58;;;17.20;;
78549;SDS011;68091;52.130;5.570;2023-05-07T12:28:13;19.98;;;16.20;;
78549;SDS011;68091;52.130;5.570;2023-05-07T12:30:40;19.23;;;16.30;;
78549;SDS011;68091;52.130;5.570;2023-05-07T12:33:17;21.55;;;17.00;;
78549;SDS011;68091;52.130;5.570;2023-05-07T12:35:47;24.48;;;17.80;;
78549;SDS011;68091;52.130;5.570;2023-05-07T12:38:14;22.05;;;16.88;;
78549;SDS011;68091;52.130;5.570;2023-05-07T12:40:42;22.90;;;17.40;;
78549;SDS011;68091;52.130;5.570;2023-05-07T12:43:26;18.45;;;15.70;;
78549;SDS011;68091;52.130;5.570;2023-05-07T12:45:54;22.75;;;17.60;;
78549;SDS011;68091;52.130;5.570;2023-05-07T12:48:21;23.33;;;16.55;;
78549;SDS011;68091;52.130;5.570;2023-05-07T12:50:59;22.55;;;17.65;;
78549;SDS011;68091;52.130;5.570;2023-05-07T12:53:26;19.15;;;15.85;;
78549;SDS011;68091;52.130;5.570;2023-05-07T12:55:57;21.48;;;17.35;;
78549;SDS011;68091;52.130;5.570;2023-05-07T12:58:28;21.50;;;16.95;;
78549;SDS011;68091;52.130;5.570;2023-05-07T13:00:59;19.98;;;15.57;;
78549;SDS011;68091;52.130;5.570;2023-05-07T13:03:33;20.95;;;17.45;;
78549;SDS011;68091;52.130;5.570;2023-05-07T13:06:04;20.35;;;16.02;;
78549;SDS011;68091;52.130;5.570;2023-05-07T13:08:36;22.73;;;17.05;;
78549;SDS011;68091;52.130;5.570;2023-05-07T13:11:06;20.17;;;17.02;;
78549;SDS011;68091;52.130;5.570;2023-05-07T13:13:33;21.88;;;16.80;;
78549;SDS011;68091;52.130;5.570;2023-05-07T13:16:03;21.17;;;16.83;;
78549;SDS011;68091;52.130;5.570;2023-05-07T13:18:36;24.83;;;17.05;;
78549;SDS011;68091;52.130;5.570;2023-05-07T13:21:08;20.75;;;16.67;;
78549;SDS011;68091;52.130;5.570;2023-05-07T13:23:38;22.10;;;17.20;;
78549;SDS011;68091;52.130;5.570;2023-05-07T13:26:09;20.17;;;15.68;;
78549;SDS011;68091;52.130;5.570;2023-05-07T13:28:45;18.42;;;14.95;;
78549;SDS011;68091;52.130;5.570;2023-05-07T13:31:11;21.80;;;16.40;;
78549;SDS011;68091;52.130;5.570;2023-05-07T13:33:37;16.88;;;13.90;;
78549;SDS011;68091;52.130;5.570;2023-05-07T13:36:02;16.80;;;14.40;;
78549;SDS011;68091;52.130;5.570;2023-05-07T13:38:30;21.50;;;14.75;;
78549;SDS011;68091;52.130;5.570;2023-05-07T13:40:56;17.88;;;14.48;;
78549;SDS011;68091;52.130;5.570;2023-05-07T13:43:23;18.35;;;13.05;;
78549;SDS011;68091;52.130;5.570;2023-05-07T13:45:49;15.73;;;12.60;;
78549;SDS011;68091;52.130;5.570;2023-05-07T13:48:15;15.90;;;12.43;;
78549;SDS011;68091;52.130;5.570;2023-05-07T13:50:41;17.33;;;12.18;;
78549;SDS011;68091;52.130;5.570;2023-05-07T13:53:07;13.90;;;12.25;;
78549;SDS011;68091;52.130;5.570;2023-05-07T13:55:33;16.58;;;12.68;;
78549;SDS011;68091;52.130;5.570;2023-05-07T13:57:59;19.38;;;13.63;;
78549;SDS011;68091;52.130;5.570;2023-05-07T14:00:26;18.38;;;14.00;;
78549;SDS011;68091;52.130;5.570;2023-05-07T14:02:54;19.35;;;14.07;;
78549;SDS011;68091;52.130;5.570;2023-05-07T14:05:20;21.08;;;13.10;;
78549;SDS011;68091;52.130;5.570;2023-05-07T14:07:48;16.75;;;12.32;;
78549;SDS011;68091;52.130;5.570;2023-05-07T14:10:18;18.40;;;12.50;;
78549;SDS011;68091;52.130;5.570;2023-05-07T14:12:44;17.33;;;13.13;;
78549;SDS011;68091;52.130;5.570;2023-05-07T14:15:19;19.65;;;12.73;;
78549;SDS011;68091;52.130;5.570;2023-05-07T14:17:45;16.02;;;13.18;;
78549;SDS011;68091;52.130;5.570;2023-05-07T14:20:12;14.93;;;11.90;;
78549;SDS011;68091;52.130;5.570;2023-05-07T14:22:38;16.25;;;12.60;;
78549;SDS011;68091;52.130;5.570;2023-05-07T14:25:08;17.08;;;12.50;;
78549;SDS011;68091;52.130;5.570;2023-05-07T14:27:53;17.63;;;13.32;;
78549;SDS011;68091;52.130;5.570;2023-05-07T14:30:19;19.10;;;13.63;;
78549;SDS011;68091;52.130;5.570;2023-05-07T14:32:48;18.95;;;13.40;;
78549;SDS011;68091;52.130;5.570;2023-05-07T14:35:37;16.63;;;13.07;;
78549;SDS011;68091;52.130;5.570;2023-05-07T14:38:03;20.38;;;15.15;;
78549;SDS011;68091;52.130;5.570;2023-05-07T14:40:29;19.40;;;13.48;;
78549;SDS011;68091;52.130;5.570;2023-05-07T14:43:04;16.63;;;12.98;;
78549;SDS011;68091;52.130;5.570;2023-05-07T14:45:30;18.73;;;13.68;;
78549;SDS011;68091;52.130;5.570;2023-05-07T14:48:12;18.25;;;14.13;;